Time;durP1;ratioP1;P1;durP2;ratioP2;P2;SDS_P1;SDS_P2;PMS_P1;PMS_P2;Temp;Humidity;BMP_temperature;BMP_pressure;BME280_temperature;BME280_humidity;BME280_pressure;Samples;Min_cycle;Max_cycle;Signal;HPM_P1;HPM_P2
2021/11/13 00:00:00;;;;;;;57.27;29.73;;;;;;;5.11;100.00;100824.56;4917011;29;20051;-82
2021/11/13 00:02:27;;;;;;;56.90;29.90;;;;;;;5.14;100.00;100822.00;4901657;29;20501;-83
2021/11/13 00:04:54;;;;;;;58.57;28.50;;;;;;;5.01;100.00;100822.78;4920301;29;20047;-83
2021/11/13 00:07:20;;;;;;;64.47;30.97;;;;;;;5.03;100.00;100808.81;4905745;29;20539;-83
2021/11/13 00:09:47;;;;;;;61.43;29.57;;;;;;;4.96;100.00;100809.69;4919637;29;20074;-82
2021/11/13 00:12:14;;;;;;;62.33;30.53;;;;;;;4.89;100.00;100800.06;4921383;29;20050;-83
2021/11/13 00:14:44;;;;;;;63.40;29.33;;;;;;;4.94;100.00;100808.78;4912929;29;20047;-83
2021/11/13 00:17:12;;;;;;;59.73;29.17;;;;;;;4.93;100.00;100804.44;4936226;29;20043;-82
2021/11/13 00:19:40;;;;;;;62.57;30.40;;;;;;;4.73;100.00;100808.69;4920150;29;20054;-83
2021/11/13 00:22:06;;;;;;;59.73;28.17;;;;;;;4.78;100.00;100799.97;4936383;29;20070;-84
2021/11/13 00:24:33;;;;;;;56.70;29.43;;;;;;;4.77;100.00;100793.00;4919400;29;20409;-82
2021/11/13 00:27:00;;;;;;;60.10;28.53;;;;;;;4.66;100.00;100796.44;4920880;29;20513;-82
2021/11/13 00:29:26;;;;;;;60.10;28.37;;;;;;;4.65;100.00;100790.34;4917674;29;20394;-84
2021/11/13 00:31:54;;;;;;;58.17;28.00;;;;;;;4.66;100.00;100801.66;4920558;28;20051;-82
2021/11/13 00:34:21;;;;;;;57.40;28.53;;;;;;;4.65;100.00;100794.69;4919521;28;20055;-82
2021/11/13 00:36:48;;;;;;;56.97;30.80;;;;;;;4.63;100.00;100772.88;4936406;29;20051;-82
2021/11/13 00:39:15;;;;;;;57.80;28.30;;;;;;;4.63;100.00;100771.13;4913702;29;20036;-82
2021/11/13 00:41:42;;;;;;;54.03;28.87;;;;;;;4.57;100.00;100783.31;4921149;29;20202;-82
2021/11/13 00:44:09;;;;;;;61.03;30.30;;;;;;;4.60;100.00;100770.22;4918776;29;20762;-82
2021/11/13 00:46:41;;;;;;;64.33;31.07;;;;;;;4.56;100.00;100771.09;4922043;29;20050;-84
2021/11/13 00:49:08;;;;;;;58.97;31.63;;;;;;;4.51;100.00;100765.81;4921912;29;20042;-84
2021/11/13 00:51:36;;;;;;;57.23;28.60;;;;;;;4.48;100.00;100763.19;4921147;29;20055;-83
2021/11/13 00:54:03;;;;;;;53.70;26.90;;;;;;;4.50;100.00;100740.53;4960067;29;20051;-84
2021/11/13 00:56:30;;;;;;;56.13;28.70;;;;;;;4.44;100.00;100741.34;4934803;29;20062;-84
2021/11/13 00:58:57;;;;;;;57.20;29.63;;;;;;;4.46;100.00;100737.03;4924064;29;20047;-85
2021/11/13 01:01:24;;;;;;;62.90;31.43;;;;;;;4.51;100.00;100744.88;4923536;28;20051;-83
2021/11/13 01:03:51;;;;;;;58.63;29.50;;;;;;;4.46;100.00;100755.34;4987242;23;20046;-84
2021/11/13 01:06:19;;;;;;;60.17;29.50;;;;;;;4.46;100.00;100768.41;4940827;28;20045;-84
2021/11/13 01:08:47;;;;;;;61.33;28.13;;;;;;;4.45;100.00;100771.00;4956551;28;20042;-83
2021/11/13 01:11:15;;;;;;;65.17;32.53;;;;;;;4.47;100.00;100770.16;4955752;28;20035;-86
2021/11/13 01:13:43;;;;;;;52.90;26.97;;;;;;;4.41;100.00;100769.25;4941664;28;20057;-84
2021/11/13 01:16:10;;;;;;;68.40;31.10;;;;;;;4.47;100.00;100764.06;4931783;28;20412;-83
2021/11/13 01:18:39;;;;;;;63.10;29.20;;;;;;;4.45;100.00;100771.88;4933695;28;20493;-84
2021/11/13 01:21:06;;;;;;;66.57;30.50;;;;;;;4.45;100.00;100761.41;4938490;28;20161;-84
2021/11/13 01:23:33;;;;;;;65.37;30.80;;;;;;;4.49;100.00;100746.63;4945309;28;20062;-84
2021/11/13 01:26:01;;;;;;;54.07;28.17;;;;;;;4.42;100.00;100755.31;4925119;28;20046;-85
2021/11/13 01:28:27;;;;;;;60.60;29.40;;;;;;;4.45;100.00;100765.78;4929439;28;20057;-83
2021/11/13 01:30:54;;;;;;;54.20;29.07;;;;;;;4.43;100.00;100763.16;4928104;29;20595;-84
2021/11/13 01:33:21;;;;;;;66.97;29.53;;;;;;;4.46;100.00;100757.97;4932960;28;20043;-83
2021/11/13 01:35:48;;;;;;;61.77;30.77;;;;;;;4.44;100.00;100764.91;4930866;28;20047;-83
2021/11/13 01:38:16;;;;;;;58.83;29.90;;;;;;;4.40;100.00;100765.75;4952063;28;20053;-84
2021/11/13 01:40:44;;;;;;;59.80;31.37;;;;;;;4.40;100.00;100757.91;4942717;28;20051;-84
2021/11/13 01:43:11;;;;;;;65.63;28.77;;;;;;;4.43;100.00;100770.13;4922246;28;20046;-85
2021/11/13 01:45:38;;;;;;;59.50;29.73;;;;;;;4.45;100.00;100776.22;4942791;28;20046;-83
2021/11/13 01:48:05;;;;;;;59.97;29.17;;;;;;;4.44;100.00;100770.13;4947035;28;20580;-84
2021/11/13 01:50:34;;;;;;;64.27;28.70;;;;;;;4.40;100.00;100760.53;4944916;29;20043;-84
2021/11/13 01:53:02;;;;;;;58.10;27.77;;;;;;;4.49;100.00;100768.44;4934268;28;20043;-83
2021/11/13 01:55:34;;;;;;;61.80;31.07;;;;;;;4.36;100.00;100763.97;4919624;29;20416;-85
2021/11/13 01:58:02;;;;;;;58.67;28.23;;;;;;;4.36;100.00;100773.56;4943032;28;20105;-84
2021/11/13 02:00:57;;;;;;;58.33;28.17;;;;;;;4.38;100.00;100771.84;4929525;28;20451;-84
2021/11/13 02:03:24;;;;;;;;;;;;;;;4.38;100.00;100762.25;4940542;28;20393;-83
2021/11/13 02:05:51;;;;;;;52.27;27.80;;;;;;;4.32;100.00;100757.00;4944193;28;19922;-85
2021/11/13 02:08:18;;;;;;;54.67;27.10;;;;;;;4.32;100.00;100754.38;4956999;28;20055;-83
2021/11/13 02:10:46;;;;;;;58.77;29.27;;;;;;;4.34;100.00;100759.59;4946731;28;20038;-83
2021/11/13 02:13:12;;;;;;;54.83;27.87;;;;;;;4.23;100.00;100757.81;4947693;28;20077;-84
2021/11/13 02:15:39;;;;;;;56.53;27.37;;;;;;;4.21;100.00;100745.59;4929478;28;20042;-84
2021/11/13 02:18:06;;;;;;;54.57;27.63;;;;;;;4.24;100.00;100740.38;4936226;28;20054;-84
2021/11/13 02:20:37;;;;;;;59.17;30.20;;;;;;;4.32;100.00;100749.13;4940475;28;20551;-84
2021/11/13 02:23:11;;;;;;;52.77;26.00;;;;;;;4.30;100.00;100745.66;4949711;28;20039;-83
2021/11/13 02:25:38;;;;;;;59.03;28.33;;;;;;;4.24;100.00;100741.25;4923152;28;20046;-83
2021/11/13 02:28:06;;;;;;;52.13;26.27;;;;;;;4.22;100.00;100735.13;4948315;28;20057;-84
2021/11/13 02:30:34;;;;;;;58.67;27.10;;;;;;;4.17;100.00;100721.16;4933522;28;20055;-84
2021/11/13 02:33:00;;;;;;;53.33;26.57;;;;;;;4.15;100.00;100735.97;4936681;28;20042;-84
2021/11/13 02:35:31;;;;;;;58.00;27.47;;;;;;;4.30;100.00;100735.19;4933795;28;20051;-83
2021/11/13 02:38:09;;;;;;;61.50;29.27;;;;;;;4.24;100.00;100722.94;4946106;28;20051;-84
2021/11/13 02:40:36;;;;;;;58.73;28.53;;;;;;;4.20;100.00;100729.03;4938519;28;20047;-84
2021/11/13 02:43:03;;;;;;;51.53;26.03;;;;;;;4.17;100.00;100728.13;4923862;29;20039;-83
2021/11/13 02:45:31;;;;;;;61.70;27.03;;;;;;;4.21;100.00;100748.22;4932651;28;20042;-84
2021/11/13 02:48:00;;;;;;;54.13;27.03;;;;;;;4.17;100.00;100746.41;4943197;28;20416;-84
2021/11/13 02:50:27;;;;;;;52.60;25.83;;;;;;;4.17;100.00;100731.59;4930896;28;20089;-84
2021/11/13 02:52:56;;;;;;;55.27;27.33;;;;;;;4.14;100.00;100733.34;4941713;28;20043;-84
2021/11/13 02:55:23;;;;;;;52.07;26.40;;;;;;;4.20;100.00;100746.44;4924824;28;20055;-84
2021/11/13 02:57:51;;;;;;;55.00;26.93;;;;;;;4.11;100.00;100738.53;4925401;28;20129;-84
2021/11/13 03:00:23;;;;;;;52.37;26.73;;;;;;;4.12;100.00;100730.72;4932954;28;20038;-84
2021/11/13 03:02:51;;;;;;;54.37;25.23;;;;;;;4.09;100.00;100725.44;4931724;28;20050;-84
2021/11/13 03:05:29;;;;;;;57.80;28.17;;;;;;;4.12;100.00;100715.03;4939684;28;20317;-85
2021/11/13 03:07:58;;;;;;;51.60;26.87;;;;;;;4.06;100.00;100699.28;4947110;28;20050;-84
2021/11/13 03:10:27;;;;;;;56.73;26.90;;;;;;;4.18;100.00;100688.03;4940098;28;20047;-83
2021/11/13 03:12:54;;;;;;;54.17;27.20;;;;;;;4.13;100.00;100706.31;4952802;28;20100;-84
2021/11/13 03:15:22;;;;;;;54.00;24.93;;;;;;;4.07;100.00;100711.50;4926078;28;20053;-83
2021/11/13 03:17:50;;;;;;;59.70;26.83;;;;;;;3.99;100.00;100712.31;4927525;28;20062;-84
2021/11/13 03:20:19;;;;;;;54.70;26.83;;;;;;;4.00;100.00;100683.56;4938534;28;20508;-84
2021/11/13 03:22:46;;;;;;;54.80;27.77;;;;;;;4.09;100.00;100677.50;4931500;28;20034;-83
2021/11/13 03:25:16;;;;;;;54.10;28.63;;;;;;;4.04;100.00;100668.78;4947426;28;20043;-84
2021/11/13 03:27:47;;;;;;;62.77;28.63;;;;;;;3.93;100.00;100664.34;4930052;29;20456;-84
2021/11/13 03:30:17;;;;;;;53.47;28.43;;;;;;;4.05;100.00;100678.38;4921477;28;20130;-84
2021/11/13 03:32:44;;;;;;;57.33;27.17;;;;;;;4.03;100.00;100683.56;4957175;28;20046;-85
2021/11/13 03:35:13;;;;;;;55.13;28.23;;;;;;;4.04;100.00;100689.69;4924840;28;20567;-83
2021/11/13 03:37:40;;;;;;;58.10;26.93;;;;;;;4.04;100.00;100692.31;4947708;28;20053;-83
2021/11/13 03:40:09;;;;;;;64.03;29.07;;;;;;;4.03;100.00;100673.09;4958614;28;20034;-84
2021/11/13 03:42:37;;;;;;;57.77;27.27;;;;;;;4.04;100.00;100687.09;4916633;29;20047;-85
2021/11/13 03:45:05;;;;;;;53.73;27.50;;;;;;;4.07;100.00;100700.16;4921178;28;20038;-83
2021/11/13 03:47:35;;;;;;;54.93;27.33;;;;;;;3.94;100.00;100700.06;4922087;28;20050;-85
2021/11/13 03:50:03;;;;;;;50.97;25.53;;;;;;;3.93;100.00;100705.28;4933145;28;20043;-84
2021/11/13 03:52:30;;;;;;;56.00;26.40;;;;;;;3.97;100.00;100706.19;4927239;28;20100;-83
2021/11/13 03:54:56;;;;;;;52.10;27.27;;;;;;;4.02;100.00;100694.03;4951453;28;20057;-85
2021/11/13 03:57:23;;;;;;;56.27;27.53;;;;;;;3.95;100.00;100703.56;4942011;28;20138;-83
2021/11/13 03:59:50;;;;;;;55.80;26.73;;;;;;;3.96;100.00;100710.56;4956695;28;20046;-83
2021/11/13 04:02:16;;;;;;;53.83;26.80;;;;;;;3.90;100.00;100693.09;4944435;28;20047;-84
2021/11/13 04:04:43;;;;;;;56.73;26.50;;;;;;;3.95;100.00;100672.19;4948575;28;20496;-83
2021/11/13 04:07:11;;;;;;;53.13;27.53;;;;;;;3.95;100.00;100662.63;4932718;28;20050;-84
2021/11/13 04:09:39;;;;;;;58.20;27.63;;;;;;;4.01;100.00;100658.28;4932221;28;20054;-84
2021/11/13 04:12:07;;;;;;;58.37;28.07;;;;;;;4.07;100.00;100672.28;4923878;28;20039;-84
2021/11/13 04:14:35;;;;;;;54.57;28.23;;;;;;;4.04;100.00;100669.66;4949116;28;20049;-84
2021/11/13 04:17:03;;;;;;;50.03;25.43;;;;;;;4.01;100.00;100666.13;4935938;29;20047;-84
2021/11/13 04:19:30;;;;;;;52.93;27.27;;;;;;;3.98;100.00;100658.28;4923582;28;20089;-84
2021/11/13 04:21:57;;;;;;;55.10;26.80;;;;;;;4.03;100.00;100646.97;4955773;28;20427;-85
2021/11/13 04:24:24;;;;;;;54.77;27.67;;;;;;;4.07;100.00;100647.88;4937622;28;20133;-84
2021/11/13 04:26:50;;;;;;;57.33;27.07;;;;;;;3.99;100.00;100641.72;4946492;28;20065;-83
2021/11/13 04:29:17;;;;;;;55.90;28.57;;;;;;;4.01;100.00;100648.72;4924967;28;20101;-84
2021/11/13 04:31:45;;;;;;;59.50;27.63;;;;;;;3.97;100.00;100648.69;4962806;28;20042;-84
2021/11/13 04:34:20;;;;;;;56.83;27.73;;;;;;;3.99;100.00;100652.19;4937918;28;20057;-85
2021/11/13 04:36:51;;;;;;;58.10;26.57;;;;;;;3.99;100.00;100654.81;4924299;28;20050;-84
2021/11/13 04:39:20;;;;;;;63.87;31.83;;;;;;;4.06;100.00;100648.75;4923200;28;20043;-84
2021/11/13 04:41:47;;;;;;;61.20;28.07;;;;;;;4.02;100.00;100660.03;4938457;28;20062;-84
2021/11/13 04:44:13;;;;;;;55.40;29.03;;;;;;;3.90;100.00;100671.31;4935094;28;20057;-84
2021/11/13 04:46:40;;;;;;;60.23;26.90;;;;;;;4.01;100.00;100676.59;4923512;28;20039;-84
2021/11/13 04:49:07;;;;;;;54.87;27.60;;;;;;;3.98;100.00;100685.28;4941415;28;20057;-84
2021/11/13 04:51:33;;;;;;;54.23;26.73;;;;;;;3.95;100.00;100693.09;4945969;28;20047;-85
2021/11/13 04:54:00;;;;;;;52.17;27.27;;;;;;;3.96;100.00;100702.72;4936629;28;20042;-85
2021/11/13 04:56:27;;;;;;;56.53;28.43;;;;;;;3.99;100.00;100717.53;4923749;28;20054;-84
2021/11/13 04:58:54;;;;;;;55.17;26.23;;;;;;;3.97;100.00;100716.66;4922410;28;20200;-83
2021/11/13 05:01:20;;;;;;;61.27;26.10;;;;;;;3.97;100.00;100717.53;4922963;28;20093;-84
2021/11/13 05:03:47;;;;;;;52.70;25.90;;;;;;;3.95;100.00;100727.97;4918471;29;20488;-84
2021/11/13 05:06:14;;;;;;;60.10;28.30;;;;;;;3.99;100.00;100725.38;4904191;29;20055;-84
2021/11/13 05:08:40;;;;;;;56.37;27.17;;;;;;;3.99;100.00;100722.75;4918955;29;20102;-85
2021/11/13 05:11:07;;;;;;;55.30;27.27;;;;;;;3.97;100.00;100728.00;4928223;28;20050;-85
2021/11/13 05:13:34;;;;;;;53.60;26.83;;;;;;;4.01;100.00;100728.88;4937577;28;20062;-84
2021/11/13 05:16:00;;;;;;;54.90;27.93;;;;;;;4.04;100.00;100729.78;4923134;28;20042;-84
2021/11/13 05:18:27;;;;;;;55.67;27.83;;;;;;;4.03;100.00;100725.41;4939583;28;20108;-84
2021/11/13 05:20:54;;;;;;;51.27;25.93;;;;;;;4.03;100.00;100724.53;4951798;28;20038;-84
2021/11/13 05:23:20;;;;;;;56.40;28.00;;;;;;;4.02;100.00;100717.53;4948420;28;20046;-83
2021/11/13 05:25:47;;;;;;;58.20;26.57;;;;;;;4.00;100.00;100720.16;4938930;28;20049;-84
2021/11/13 05:28:14;;;;;;;52.63;26.13;;;;;;;4.05;100.00;100728.91;4944135;28;20045;-83
2021/11/13 05:30:41;;;;;;;52.37;25.00;;;;;;;4.02;100.00;100728.00;4938552;28;20446;-83
2021/11/13 05:33:07;;;;;;;51.37;25.77;;;;;;;4.02;100.00;100723.66;4920015;28;20047;-84
2021/11/13 05:35:34;;;;;;;50.70;24.47;;;;;;;3.99;100.00;100720.16;4933599;28;20046;-84
2021/11/13 05:38:01;;;;;;;46.93;23.87;;;;;;;4.05;100.00;100726.31;4921563;29;20046;-83
2021/11/13 05:40:27;;;;;;;51.50;27.17;;;;;;;4.04;100.00;100721.94;4942769;28;20062;-83
2021/11/13 05:42:54;;;;;;;48.30;25.80;;;;;;;4.04;100.00;100715.84;4939571;28;20047;-83
2021/11/13 05:45:21;;;;;;;49.27;26.77;;;;;;;4.03;100.00;100717.56;4934992;28;20038;-83
2021/11/13 05:47:48;;;;;;;50.07;25.20;;;;;;;4.05;100.00;100728.91;4952687;28;20035;-83
2021/11/13 05:50:17;;;;;;;50.90;25.20;;;;;;;4.06;100.00;100742.88;4911948;28;20066;-83
2021/11/13 05:52:46;;;;;;;51.50;24.83;;;;;;;4.00;100.00;100735.84;4928497;28;20531;-83
2021/11/13 05:55:14;;;;;;;51.57;25.83;;;;;;;3.99;100.00;100741.06;4943623;28;20082;-84
2021/11/13 05:57:41;;;;;;;50.43;24.63;;;;;;;4.01;100.00;100737.59;4927150;28;20042;-83
2021/11/13 06:00:11;;;;;;;48.70;23.73;;;;;;;4.02;100.00;100720.16;4924959;28;20051;-83
2021/11/13 06:02:38;;;;;;;48.47;24.50;;;;;;;4.02;100.00;100717.53;4955489;28;20042;-83
2021/11/13 06:05:06;;;;;;;52.00;25.40;;;;;;;4.02;100.00;100723.66;4926050;28;21593;-83
2021/11/13 06:07:33;;;;;;;50.33;25.00;;;;;;;4.02;100.00;100741.94;4929244;28;20043;-80
2021/11/13 06:10:00;;;;;;;48.93;25.23;;;;;;;3.99;100.00;100733.22;4954031;28;20074;-83
2021/11/13 06:12:27;;;;;;;49.13;26.30;;;;;;;4.02;100.00;100725.38;4937158;28;20035;-84
2021/11/13 06:14:54;;;;;;;47.17;25.03;;;;;;;4.02;100.00;100722.78;4922836;28;20038;-84
2021/11/13 06:17:20;;;;;;;54.90;26.23;;;;;;;4.08;100.00;100730.66;4927165;28;20053;-83
2021/11/13 06:19:47;;;;;;;52.10;28.43;;;;;;;4.11;100.00;100735.91;4940383;28;20546;-84
2021/11/13 06:22:14;;;;;;;54.03;28.73;;;;;;;4.10;100.00;100732.41;4925631;28;20047;-84
2021/11/13 06:24:41;;;;;;;56.50;29.80;;;;;;;4.09;100.00;100728.06;4924660;28;20385;-83
2021/11/13 06:27:09;;;;;;;51.83;27.60;;;;;;;4.16;100.00;100735.09;4925372;28;20049;-84
2021/11/13 06:29:36;;;;;;;49.63;28.87;;;;;;;4.11;100.00;100747.25;4922470;28;20050;-86
2021/11/13 06:32:03;;;;;;;52.27;26.67;;;;;;;4.08;100.00;100741.13;4940572;28;20712;-84
2021/11/13 06:34:29;;;;;;;53.37;27.23;;;;;;;4.10;100.00;100742.00;4923102;28;20440;-84
2021/11/13 06:36:56;;;;;;;48.87;25.47;;;;;;;4.21;100.00;100745.59;4923256;28;20039;-84
2021/11/13 06:39:22;;;;;;;55.20;27.70;;;;;;;4.21;100.00;100748.22;4939270;28;20042;-83
2021/11/13 06:41:49;;;;;;;50.13;26.07;;;;;;;4.11;100.00;100738.53;4926950;28;20039;-83
2021/11/13 06:44:16;;;;;;;45.63;24.23;;;;;;;4.05;100.00;100742.00;4939314;28;20043;-83
2021/11/13 06:46:43;;;;;;;49.37;25.27;;;;;;;4.09;100.00;100751.59;4924343;28;20039;-83
2021/11/13 06:49:09;;;;;;;49.50;23.93;;;;;;;4.11;100.00;100744.63;4924494;28;20400;-82
2021/11/13 06:51:37;;;;;;;49.90;25.60;;;;;;;4.09;100.00;100746.38;4923623;28;20053;-82
2021/11/13 06:54:03;;;;;;;53.77;25.73;;;;;;;4.16;100.00;100749.91;4936786;29;20051;-82
2021/11/13 06:56:30;;;;;;;50.80;26.00;;;;;;;4.11;100.00;100744.63;4924365;28;20047;-83
2021/11/13 06:58:57;;;;;;;58.90;28.60;;;;;;;4.10;100.00;100758.56;4938715;28;20055;-84
2021/11/13 07:01:24;;;;;;;44.10;23.63;;;;;;;4.04;100.00;100755.94;4940720;28;20451;-84
2021/11/13 07:03:50;;;;;;;47.10;23.13;;;;;;;4.07;100.00;100753.31;4939333;28;20509;-81
2021/11/13 07:06:18;;;;;;;49.27;24.87;;;;;;;4.12;100.00;100751.63;4938444;28;20493;-83
2021/11/13 07:08:45;;;;;;;47.30;25.00;;;;;;;4.11;100.00;100759.44;4930678;28;20058;-83
2021/11/13 07:11:11;;;;;;;57.60;27.67;;;;;;;4.18;100.00;100753.41;4924914;28;20042;-82
2021/11/13 07:13:38;;;;;;;48.37;25.37;;;;;;;4.22;100.00;100760.41;4945106;28;20046;-82
2021/11/13 07:16:05;;;;;;;49.30;26.27;;;;;;;4.22;100.00;100756.06;4935764;29;20098;-83
2021/11/13 07:18:32;;;;;;;39.83;22.30;;;;;;;4.15;100.00;100753.38;4933902;28;20047;-82
2021/11/13 07:21:01;;;;;;;44.47;23.10;;;;;;;4.12;100.00;100750.72;5033478;23;20047;-83
2021/11/13 07:23:29;;;;;;;45.83;24.07;;;;;;;4.14;100.00;100754.25;4934730;29;20056;-83
2021/11/13 07:25:58;;;;;;;49.17;26.07;;;;;;;4.14;100.00;100751.63;4928111;29;20054;-83
2021/11/13 07:28:38;;;;;;;46.07;23.93;;;;;;;4.18;100.00;100754.28;4921559;29;20114;-82
2021/11/13 07:31:07;;;;;;;54.30;28.40;;;;;;;4.25;100.00;100749.97;4921881;29;20134;-82
2021/11/13 07:33:38;;;;;;;54.77;24.73;;;;;;;4.21;100.00;100749.06;4949842;29;20681;-83
2021/11/13 07:36:06;;;;;;;53.20;27.37;;;;;;;4.24;100.00;100738.63;4948466;28;20111;-84
2021/11/13 07:38:34;;;;;;;44.97;23.20;;;;;;;4.27;100.00;100737.75;4934299;28;20993;-83
2021/11/13 07:41:01;;;;;;;45.63;24.63;;;;;;;4.27;100.00;100739.50;4951175;29;20517;-83
2021/11/13 07:43:28;;;;;;;44.03;24.97;;;;;;;4.26;100.00;100743.00;4920802;29;20146;-83
2021/11/13 07:45:55;;;;;;;44.23;23.27;;;;;;;4.35;100.00;100753.50;4925933;29;20039;-84
2021/11/13 07:48:21;;;;;;;47.90;22.97;;;;;;;4.36;100.00;100756.13;4925400;29;20189;-84
2021/11/13 07:50:48;;;;;;;43.50;23.30;;;;;;;4.32;100.00;100766.56;4942483;29;20556;-83
2021/11/13 07:53:15;;;;;;;45.83;23.13;;;;;;;4.42;100.00;100771.00;4944162;28;20066;-84
2021/11/13 07:55:42;;;;;;;45.90;24.30;;;;;;;4.36;100.00;100765.72;4926356;29;20055;-81
2021/11/13 07:58:09;;;;;;;48.97;27.23;;;;;;;4.36;100.00;100777.06;4945174;29;20381;-82
2021/11/13 08:00:36;;;;;;;42.97;22.90;;;;;;;4.36;100.00;100768.34;4926322;29;20055;-82
2021/11/13 08:03:03;;;;;;;46.33;22.60;;;;;;;4.33;100.00;100761.34;4969292;28;20592;-82
2021/11/13 08:05:30;;;;;;;46.33;23.13;;;;;;;4.48;100.00;100751.00;4916999;29;20043;-81
2021/11/13 08:07:57;;;;;;;47.93;24.07;;;;;;;4.45;100.00;100755.31;4929736;29;20087;-81
2021/11/13 08:10:23;;;;;;;44.47;23.63;;;;;;;4.49;100.00;100749.25;4914045;29;20512;-83
2021/11/13 08:12:51;;;;;;;43.60;22.87;;;;;;;4.54;100.00;100752.78;4914566;29;20066;-81
2021/11/13 08:15:18;;;;;;;45.20;23.20;;;;;;;4.54;100.00;100758.00;4922617;29;20039;-84
2021/11/13 08:17:45;;;;;;;45.40;23.83;;;;;;;4.58;100.00;100751.03;4894400;29;20047;-82
2021/11/13 08:20:16;;;;;;;46.47;22.10;;;;;;;4.54;100.00;100768.47;4952074;28;20059;-83
2021/11/13 08:22:43;;;;;;;46.20;23.93;;;;;;;4.57;100.00;100760.63;4899607;29;20036;-82
2021/11/13 08:25:13;;;;;;;41.87;21.47;;;;;;;4.53;100.00;100757.09;4918520;29;20047;-84
2021/11/13 08:27:40;;;;;;;40.93;24.57;;;;;;;4.57;100.00;100765.00;4929299;29;20472;-83
2021/11/13 08:30:07;;;;;;;44.37;22.93;;;;;;;4.49;100.00;100763.19;4938618;29;20095;-83
2021/11/13 08:32:35;;;;;;;39.47;21.23;;;;;;;4.62;100.00;100764.13;4923997;29;20056;-82
2021/11/13 08:35:03;;;;;;;43.77;21.47;;;;;;;4.63;100.00;100767.66;4929238;29;20048;-83
2021/11/13 08:37:30;;;;;;;40.17;22.43;;;;;;;4.70;100.00;100751.06;4928387;29;20044;-84
2021/11/13 08:39:57;;;;;;;46.93;20.97;;;;;;;4.72;100.00;100755.47;4915168;29;20048;-83
2021/11/13 08:42:24;;;;;;;36.40;20.73;;;;;;;4.77;100.00;100760.72;4928371;29;20055;-85
2021/11/13 08:44:52;;;;;;;40.37;19.87;;;;;;;4.78;100.00;100760.72;4940523;28;20509;-84
2021/11/13 08:47:19;;;;;;;36.37;21.20;;;;;;;4.73;100.00;100762.47;4900298;29;20059;-83
2021/11/13 08:49:47;;;;;;;37.70;20.33;;;;;;;4.83;100.00;100766.00;4932565;29;20044;-82
2021/11/13 08:52:17;;;;;;;38.50;20.80;;;;;;;4.87;100.00;100770.34;4930965;28;20051;-81
2021/11/13 08:54:46;;;;;;;39.17;21.43;;;;;;;4.94;100.00;100776.50;4924542;29;20043;-83
2021/11/13 08:57:14;;;;;;;39.77;21.03;;;;;;;5.00;100.00;100772.16;4902580;29;20409;-83
2021/11/13 08:59:40;;;;;;;38.70;20.80;;;;;;;5.04;100.00;100757.34;4909449;29;20047;-82
2021/11/13 09:02:11;;;;;;;40.60;21.23;;;;;;;5.14;100.00;100764.38;4949916;28;20052;-82
2021/11/13 09:04:39;;;;;;;37.57;20.03;;;;;;;5.11;100.00;100758.22;4934134;29;20489;-83
2021/11/13 09:07:07;;;;;;;40.83;21.40;;;;;;;5.16;100.00;100778.34;4944014;28;20047;-82
2021/11/13 09:09:37;;;;;;;37.67;21.27;;;;;;;5.22;100.00;100769.63;4916405;29;20043;-83
2021/11/13 09:12:06;;;;;;;36.77;20.83;;;;;;;5.28;100.00;100780.13;4967638;28;20047;-82
2021/11/13 09:14:33;;;;;;;41.70;20.87;;;;;;;5.30;100.00;100773.16;4921164;29;20513;-82
2021/11/13 09:17:00;;;;;;;35.07;19.73;;;;;;;5.35;100.00;100771.41;4944118;28;20098;-83
2021/11/13 09:19:27;;;;;;;36.97;20.20;;;;;;;5.42;100.00;100785.41;4941410;28;20056;-83
2021/11/13 09:21:54;;;;;;;34.53;19.33;;;;;;;5.36;100.00;100781.00;4956028;28;20051;-83
2021/11/13 09:24:22;;;;;;;35.20;19.47;;;;;;;5.43;100.00;100793.25;4914406;29;20048;-83
2021/11/13 09:26:49;;;;;;;37.60;19.90;;;;;;;5.46;100.00;100793.25;4914461;29;20070;-82
2021/11/13 09:29:16;;;;;;;37.87;19.60;;;;;;;5.53;100.00;100794.16;4941954;28;20450;-83
2021/11/13 09:31:43;;;;;;;38.77;20.30;;;;;;;5.51;100.00;100791.53;4926808;29;20048;-83
2021/11/13 09:34:15;;;;;;;36.70;18.33;;;;;;;5.68;100.00;100790.69;4939876;29;20493;-83
2021/11/13 09:36:43;;;;;;;34.07;17.43;;;;;;;5.69;100.00;100780.22;4944319;29;20047;-83
2021/11/13 09:39:10;;;;;;;37.00;19.67;;;;;;;5.77;100.00;100788.09;4930050;29;20051;-82
2021/11/13 09:41:37;;;;;;;36.37;17.70;;;;;;;5.82;100.00;100775.88;4933217;29;20064;-83
2021/11/13 09:44:05;;;;;;;31.70;17.37;;;;;;;5.93;100.00;100775.03;4938702;29;20076;-83
2021/11/13 09:46:31;;;;;;;32.93;18.60;;;;;;;6.11;100.00;100775.88;4955016;29;20047;-83
2021/11/13 09:48:58;;;;;;;38.20;19.43;;;;;;;6.21;100.00;100775.00;4931548;29;20131;-81
2021/11/13 09:51:26;;;;;;;33.50;19.27;;;;;;;6.25;100.00;100782.00;4952946;28;20497;-83
2021/11/13 09:53:53;;;;;;;32.33;18.20;;;;;;;6.23;99.38;100775.91;4944425;29;20051;-83
2021/11/13 09:56:19;;;;;;;32.97;20.47;;;;;;;6.31;100.00;100776.75;4951907;29;20098;-82
2021/11/13 09:58:51;;;;;;;29.50;17.87;;;;;;;6.31;100.00;100774.13;4928208;29;20047;-82
2021/11/13 10:01:19;;;;;;;31.73;17.13;;;;;;;6.33;100.00;100768.88;4937786;29;20490;-81
2021/11/13 10:03:47;;;;;;;32.30;18.33;;;;;;;6.36;100.00;100779.38;4952871;28;20051;-82
2021/11/13 10:06:18;;;;;;;31.37;18.40;;;;;;;6.46;96.32;100778.47;4920855;29;20043;-82
2021/11/13 10:08:49;;;;;;;32.17;17.07;;;;;;;6.49;98.34;100773.22;4920696;29;20044;-82
2021/11/13 10:11:19;;;;;;;31.87;16.67;;;;;;;6.49;96.64;100775.84;4904721;29;20052;-81
2021/11/13 10:13:53;;;;;;;25.13;15.20;;;;;;;6.45;95.55;100769.72;4916721;29;20040;-83
2021/11/13 10:16:24;;;;;;;31.50;17.33;;;;;;;6.42;95.35;100774.13;4924498;29;20449;-82
2021/11/13 10:18:54;;;;;;;28.03;16.50;;;;;;;6.45;97.16;100768.84;4917599;29;20039;-82
2021/11/13 10:21:22;;;;;;;27.60;16.37;;;;;;;6.40;97.51;100761.00;4930406;28;20095;-83
2021/11/13 10:23:59;;;;;;;27.10;16.90;;;;;;;6.45;96.98;100766.22;4933095;29;20036;-82
2021/11/13 10:26:30;;;;;;;24.97;16.43;;;;;;;6.27;93.67;100758.38;4941871;29;20052;-83
2021/11/13 10:29:04;;;;;;;26.40;15.13;;;;;;;6.43;94.98;100760.13;4939158;29;20051;-84
2021/11/13 10:31:38;;;;;;;;;;;;;;;6.40;91.58;100762.75;4943746;29;20124;-83
2021/11/13 10:34:07;;;;;;;27.33;15.80;;;;;;;6.31;93.90;100762.78;4939122;29;20369;-83
2021/11/13 10:36:40;;;;;;;27.63;15.47;;;;;;;6.36;96.57;100755.75;4924916;29;20059;-84
2021/11/13 10:39:29;;;;;;;32.77;15.10;;;;;;;6.44;97.61;100751.38;4944461;29;20058;-83
2021/11/13 10:42:00;;;;;;;29.43;17.13;;;;;;;6.60;96.45;100750.44;4942491;29;20062;-83
2021/11/13 10:44:37;;;;;;;27.27;16.53;;;;;;;6.88;96.72;100738.09;4927214;29;20087;-84
2021/11/13 10:47:12;;;;;;;29.40;16.43;;;;;;;7.17;96.72;100743.22;4932157;29;20047;-84
2021/11/13 10:49:39;;;;;;;25.63;15.47;;;;;;;7.37;95.88;100745.72;4932238;29;20055;-84
2021/11/13 10:52:08;;;;;;;28.17;17.13;;;;;;;7.62;92.06;100733.28;4929543;29;20039;-84
2021/11/13 10:54:36;;;;;;;26.60;15.27;;;;;;;7.80;88.59;100741.03;4924784;29;20569;-86
2021/11/13 10:57:07;;;;;;;25.60;15.57;;;;;;;7.82;87.20;100731.41;4922355;29;20095;-83
2021/11/13 10:59:41;;;;;;;27.23;15.87;;;;;;;7.75;86.30;100727.06;4936506;29;20058;-83
2021/11/13 11:02:10;;;;;;;22.92;14.75;;;;;;;7.66;87.74;100729.78;4952027;28;20450;-81
2021/11/13 11:04:39;;;;;;;22.25;14.23;;;;;;;7.61;88.23;100723.66;4931702;29;20103;-81
2021/11/13 11:07:24;;;;;;;25.85;15.88;;;;;;;7.77;84.68;100724.41;4935377;29;20039;-82
2021/11/13 11:10:01;;;;;;;22.27;14.23;;;;;;;7.93;90.58;100718.16;4934618;29;20039;-82
2021/11/13 11:12:30;;;;;;;27.42;14.73;;;;;;;8.15;88.31;100718.81;4952730;29;20051;-82
2021/11/13 11:14:57;;;;;;;25.30;15.20;;;;;;;8.39;84.35;100712.47;4932683;29;21573;-82